Terminal Aerodrome Forecast
Issued by NWS

Home | Current Version | Previous Version | Text Only | Print | Product List | Glossary On
Versions: 1 2 3 4 5 6 7 8 9 10 11 12 13 14
000
FTAK31 PAFA 300431 AAA
TAFAOR
TAF AMD
PAOR 300431Z 3005/3024 08004KT P6SM VCSH FEW060 SCT070 BKN100
     FM300800 VRB04KT P6SM SCT080 SCT120=

USA.gov is the U.S. government's official web portal to all federal, state and local government web resources and services.